Somes Bar, CA (95568)

9:00 AM PDT on October 25, 2014 (GMT -0700)
RAWS SAWYERS BAR CA US | Change Station
CLOSE
Current Station
Personal Weather Station
Location: Forks Of Salmon, CA
Elevation: 2455 ft
Nearby Weather Stations
Active Advisory: High Wind Warning

Elev 2455 ft 41.30 °N, 123.13 °W | Updated 38 minutes ago

Overcast
Overcast
56 °F
Feels Like 56 °F
N
10
Wind Variable Wind from East
Gusts 26.0 mph

Today
High -- | Low -- °F
--% Chance of Precip.
Yesterday
High -- | Low -- °F
Precip. -- in
7:37 AM 6:17 PM
Waxing Crescent, 3% visible
Pressure 29.81 in
Visibility 10.0 miles
Clouds Few 3700 ft
Scattered Clouds 4900 ft
Overcast 6000 ft
Dew Point 41 °F
Humidity 56%
Rainfall 0.25 in
Snow Depth Not available.
UV 0 out of 12
Pollen .40 out of 12
Air Quality Not available.
Flu Activity Sporadic
METAR KO86 251535Z AUTO 21006KT 10SM FEW037 SCT049 OVC060 11/08 A2981 RMK AO1

More Conditions Fewer Conditions

Pressure 29.81 in
Visibility 10.0 miles
Clouds Few 3700 ft
Scattered Clouds 4900 ft
Overcast 6000 ft
Dew Point 41 °F
Humidity 56%
Rainfall 0.25 in
Snow Depth Not available.
UV 0 out of 12
Pollen .40 out of 12
Air Quality Not available.
Flu Activity Sporadic
METAR KO86 251535Z AUTO 21006KT 10SM FEW037 SCT049 OVC060 11/08 A2981 RMK AO1

More Conditions Fewer Conditions

10-Day Weather Forecast

Almanac

Astronomy

Oct. 25, 2014 Rise Set
Actual Time 7:37 AM PDT 6:17 PM PDT
Civil Twilight 7:09 AM PDT 6:46 PM PDT
Nautical Twilight 6:36 AM PDT 7:18 PM PDT
Astronomical Twilight 6:04 AM PDT 7:50 PM PDT
Moon 9:22 AM PDT 7:44 PM PDT
Length of Visible Light 11h 37m
Length of Day
10h 40m
Tomorrow will be 2m 33s shorter.
Waxing Crescent, 3% of the Moon is Illuminated
Today
Waxing Crescent
Oct 30
First Quarter
Nov 6
Full
Nov 14
Last Quarter
Nov 22
New

Today's Extremes

State Highs State Lows

Community

WunderPhotos

Upload Photos

1,764,884 photos uploaded!

Nearby

Snow Depth

Station Depth Elevation
Adin Mountain 0 in 6200 ft
Independence Creek 0 in 6500 ft
Independence Lake 0 in 8450 ft
Independence Camp 0 in 7000 ft
CSS Lab 1 in 6900 ft

Earthquake Activity

City Distance Mag. Time & Date
No recent earthquake activity has been reported nearby.
Minimum magnitude displayed is 2.5.

Coastal Water Temperatures

Place Temperature
Crescent City, CA 60.1 °F
North Spit, CA 57.9 °F
Port Orford, OR 59.0 °F

Nearby Weather Stations